首页
METAR-TAF:

METAR-TAF

机场 :

安曼民航機場

安曼, 约旦

纬度: 31-59N, 经度: 035-59E, 海拔: 767米

当前天气观测

该预报发布于28分钟前的12:00 UTC
风速9节,风向西北
温度 32°C
湿度 23%
气压 1012 hPa
能見度: 5000

METAR: OJAM 161200Z 31009KT 5000 HZ NSC 32/08 Q1012 NOSIG

时间: 15:28 (12:28 UTC)

预报

该预报发布于2小时和45分钟前的09:43 UTC
预报有效从16日的 12点(UTC)到 17日的 18点(UTC)
风速10节,风向西转西北
能見度: 5000
成为
从 16日的 17点(UTC)到 16日的 19点(UTC)
风速2节,风向多变

TAF: OJAM 160943Z 1612/1718 30010KT 5000 HZ NSC BECMG 1617/1619 VRB02KT

超过4000个机场的气象观测和天气预报(METAR&TAF报告)。

可查询的气象台以黄色和红色小点在地图上表示。

将鼠标移到小点上方,可查看气象台名称。

然后点击查看天气观测和预报。

如需切换地图:点击带黑十字的绿色按钮放大地图;点击带横线的绿色按钮缩小地图;或者点击绿色箭头查看邻近地区的地图。


METAR-TAF: